Řízení letového provozu České republiky
Letiste: LKPD Aktualizace: 20.01.2017 22:08:14  UTC
 METAR LKPD 20.01. 22:00 ...
METAR LKPD 202200Z VRB01KT 4000 BR NSC M11/M13 Q1034 =
 TAF LKPD 20.01. 17:00 ...
TAF LKPD 201700Z 2018/2118 VRB02KT 4000 BR NSC      TEMPO 2018/2100 BKN040      PROB30 TEMPO 2018/2100 7000 NSW      TEMPO 2100/2108 0500 FZFG VV003      BECMG 2106/2108 2000 BR SCT045=